Time;durP1;ratioP1;P1;durP2;ratioP2;P2;SDS_P1;SDS_P2;PMS_P1;PMS_P2;Temp;Humidity;BMP_temperature;BMP_pressure;BME280_temperature;BME280_humidity;BME280_pressure;Samples;Min_cycle;Max_cycle;Signal;HPM_P1;HPM_P2
2022/09/23 00:01:22;;;;;;;8.10;5.40;;;;;;;10.30;53.29;100482.48;117329;1185;23824;-76
2022/09/23 00:03:50;;;;;;;8.20;4.80;;;;;;;10.26;53.19;100481.45;117469;1185;21849;-75
2022/09/23 00:06:20;;;;;;;5.40;4.40;;;;;;;10.25;53.24;100480.26;117089;1186;21850;-60
2022/09/23 00:08:48;;;;;;;6.20;4.50;;;;;;;10.26;53.47;100481.30;117235;1185;24281;-75
2022/09/23 00:11:20;;;;;;;6.70;4.40;;;;;;;10.25;53.34;100475.35;117377;1188;24314;-59
2022/09/23 00:13:48;;;;;;;6.80;4.30;;;;;;;10.25;53.32;100474.29;117187;1185;22908;-58
2022/09/23 00:16:17;;;;;;;7.80;4.80;;;;;;;10.26;53.45;100473.75;117156;1187;24216;-59
2022/09/23 00:18:48;;;;;;;6.00;4.40;;;;;;;10.27;53.44;100472.36;117278;1186;21859;-58
2022/09/23 00:21:15;;;;;;;6.00;4.50;;;;;;;10.24;53.37;100468.50;117357;1185;23516;-75
2022/09/23 00:23:42;;;;;;;5.00;3.80;;;;;;;10.27;53.33;100465.67;117358;1186;23609;-76
2022/09/23 00:26:11;;;;;;;7.00;4.90;;;;;;;10.31;53.36;100463.55;117067;1187;24204;-58
2022/09/23 00:28:38;;;;;;;6.10;4.20;;;;;;;10.26;53.40;100464.47;117150;1188;22930;-58
2022/09/23 00:31:07;;;;;;;7.40;4.40;;;;;;;10.26;53.58;100467.09;117169;1188;24246;-75
2022/09/23 00:33:35;;;;;;;5.60;3.80;;;;;;;10.27;53.67;100467.45;117127;1186;21857;-75
2022/09/23 00:36:05;;;;;;;5.50;4.00;;;;;;;10.26;53.84;100465.34;117298;1185;23485;-59
2022/09/23 00:38:35;;;;;;;4.90;3.50;;;;;;;10.25;53.81;100467.63;117137;1188;22998;-59
2022/09/23 00:41:02;;;;;;;6.30;4.60;;;;;;;10.26;53.81;100463.95;117233;1186;23553;-75
2022/09/23 00:43:36;;;;;;;5.90;4.20;;;;;;;10.26;53.75;100463.92;117000;1187;21865;-75
2022/09/23 00:46:03;;;;;;;5.40;3.50;;;;;;;10.27;53.83;100463.77;117119;1187;22708;-75
2022/09/23 00:48:30;;;;;;;5.90;4.20;;;;;;;10.31;53.96;100464.77;117109;1188;24162;-75
2022/09/23 00:50:57;;;;;;;6.50;4.00;;;;;;;10.32;53.91;100467.92;117097;1186;24148;-74
2022/09/23 00:53:25;;;;;;;6.00;4.10;;;;;;;10.33;53.88;100467.73;117119;1186;24170;-58
2022/09/23 00:55:55;;;;;;;6.10;4.30;;;;;;;10.34;53.77;100464.91;117278;1188;24282;-74
2022/09/23 00:58:25;;;;;;;7.20;3.90;;;;;;;10.42;53.59;100469.77;117359;1189;21850;-74
2022/09/23 01:00:53;;;;;;;8.20;4.20;;;;;;;10.43;53.56;100464.84;117084;1187;23451;-58
2022/09/23 01:03:21;;;;;;;6.20;4.50;;;;;;;10.33;53.76;100465.98;117170;1186;23480;-75
2022/09/23 01:05:48;;;;;;;5.50;4.00;;;;;;;10.30;53.85;100466.89;117142;1188;23890;-58
2022/09/23 01:08:17;;;;;;;5.20;3.60;;;;;;;10.27;54.08;100470.59;117206;1188;24220;-74
2022/09/23 01:10:59;;;;;;;5.90;4.10;;;;;;;10.23;54.03;100471.69;117166;1185;21875;-59
2022/09/23 01:13:50;;;;;;;6.90;3.90;;;;;;;10.21;53.93;100472.40;117197;1186;24167;-59
2022/09/23 01:16:32;;;;;;;5.70;4.40;;;;;;;10.17;53.94;100475.41;117458;1185;24726;-59
2022/09/23 01:19:15;;;;;;;7.00;4.00;;;;;;;10.12;53.87;100471.96;117356;1185;23445;-75
2022/09/23 01:21:43;;;;;;;5.70;4.30;;;;;;;10.09;53.99;100469.89;117330;1183;22924;-74
2022/09/23 01:24:25;;;;;;;6.80;4.30;;;;;;;10.07;53.87;100469.73;117303;1186;23475;-75
2022/09/23 01:27:23;;;;;;;7.30;4.40;;;;;;;10.08;53.98;100468.84;117237;1186;23589;-74
2022/09/23 01:30:13;;;;;;;6.20;4.10;;;;;;;10.05;53.96;100469.73;117136;1187;23611;-74
2022/09/23 01:32:59;;;;;;;;;;;;;;;10.01;54.21;100474.50;117307;1186;22606;-59
2022/09/23 01:35:29;;;;;;;5.30;3.70;;;;;;;9.99;54.16;100473.64;117411;1185;21991;-74
2022/09/23 01:38:28;;;;;;;6.20;4.60;;;;;;;9.97;54.25;100474.70;117288;1186;24169;-74
2022/09/23 01:41:05;;;;;;;6.10;3.70;;;;;;;9.96;54.42;100474.20;116999;1189;23570;-74
2022/09/23 01:43:40;;;;;;;5.80;3.80;;;;;;;9.95;54.28;100473.15;117211;1186;23615;-59
2022/09/23 01:46:21;;;;;;;5.50;3.60;;;;;;;9.94;54.31;100467.38;117336;1185;21852;-56
2022/09/23 01:49:05;;;;;;;5.40;3.60;;;;;;;9.90;54.40;100467.23;117073;1186;23554;-73
2022/09/23 01:51:49;;;;;;;5.60;3.70;;;;;;;9.89;54.30;100465.66;117344;1185;24148;-68
2022/09/23 01:54:23;;;;;;;6.60;3.60;;;;;;;9.88;54.37;100465.33;117300;1185;23548;-57
2022/09/23 01:57:02;;;;;;;6.30;4.00;;;;;;;9.87;54.56;100467.45;117097;1188;24168;-73
2022/09/23 01:59:36;;;;;;;4.80;3.40;;;;;;;9.88;54.48;100466.91;117132;1188;23550;-57
2022/09/23 02:02:32;;;;;;;5.50;3.70;;;;;;;9.90;54.34;100467.77;117310;1185;24207;-73
2022/09/23 02:05:08;;;;;;;5.20;3.90;;;;;;;9.90;54.37;100473.02;117198;1186;22915;-57
2022/09/23 02:07:56;;;;;;;5.10;4.00;;;;;;;9.88;54.35;100476.02;117318;1185;23526;-57
2022/09/23 02:10:50;;;;;;;7.50;4.00;;;;;;;9.87;54.36;100478.13;117233;1186;24231;-73
2022/09/23 02:13:23;;;;;;;7.20;4.10;;;;;;;9.85;54.32;100483.40;116927;1189;23661;-73
2022/09/23 02:15:52;;;;;;;5.70;3.90;;;;;;;9.84;54.23;100484.47;117117;1186;21870;-57
2022/09/23 02:18:45;;;;;;;11.60;4.30;;;;;;;9.82;54.27;100486.75;117210;1186;22753;-73
2022/09/23 02:21:13;;;;;;;5.20;3.90;;;;;;;9.78;54.29;100491.16;117192;1186;24185;-73
2022/09/23 02:23:43;;;;;;;6.80;4.10;;;;;;;9.74;54.18;100491.19;117354;1185;23624;-73
2022/09/23 02:26:27;;;;;;;6.40;4.10;;;;;;;9.70;54.23;100494.55;117240;1186;24161;-73
2022/09/23 02:29:12;;;;;;;5.90;3.80;;;;;;;9.64;54.18;100498.96;117203;1188;24181;-73
2022/09/23 02:31:55;;;;;;;4.90;3.50;;;;;;;9.59;54.28;100499.52;117149;1188;22622;-57
2022/09/23 02:34:36;;;;;;;5.10;3.40;;;;;;;9.52;54.38;100501.66;117140;1185;22925;-57
2022/09/23 02:37:42;;;;;;;6.80;3.10;;;;;;;9.50;54.30;100501.52;117193;1186;23554;-58
2022/09/23 02:40:13;;;;;;;4.80;3.50;;;;;;;9.50;54.25;100504.30;117303;1186;23551;-57
2022/09/23 02:42:59;;;;;;;5.40;3.70;;;;;;;9.49;54.16;100503.95;117094;1186;23486;-73
2022/09/23 02:45:27;;;;;;;7.60;4.20;;;;;;;9.49;54.20;100504.14;117317;1185;24161;-73
2022/09/23 02:48:02;;;;;;;4.90;3.50;;;;;;;9.45;53.96;100506.79;117338;1185;21871;-73
2022/09/23 02:50:30;;;;;;;5.10;3.50;;;;;;;9.41;53.97;100501.73;117382;1186;23676;-73
2022/09/23 02:52:58;;;;;;;4.60;3.00;;;;;;;9.36;53.98;100501.58;117356;1185;24156;-58
2022/09/23 02:55:29;;;;;;;5.10;3.40;;;;;;;9.32;54.19;100509.30;117291;1186;24241;-73
2022/09/23 02:57:57;;;;;;;;;;;;;;;9.23;54.29;100513.20;117292;1186;23532;-57
2022/09/23 03:00:24;;;;;;;5.60;2.80;;;;;;;9.12;54.10;100516.05;117324;1186;24239;-73
2022/09/23 03:03:03;;;;;;;4.80;3.30;;;;;;;9.03;54.17;100518.20;117111;1188;21871;-57
2022/09/23 03:05:34;;;;;;;5.50;3.30;;;;;;;8.97;54.20;100518.39;117224;1186;23649;-72
2022/09/23 03:08:24;;;;;;;5.80;3.10;;;;;;;8.91;54.20;100525.06;117041;1187;23645;-73
2022/09/23 03:10:58;;;;;;;5.10;3.30;;;;;;;8.84;54.21;100527.53;117099;1185;23600;-57
2022/09/23 03:13:45;;;;;;;5.00;3.00;;;;;;;8.74;54.25;100527.38;117153;1186;23541;-57
2022/09/23 03:16:31;;;;;;;6.00;3.30;;;;;;;8.64;54.41;100526.52;117044;1187;23579;-57
2022/09/23 03:19:21;;;;;;;4.60;3.50;;;;;;;8.58;54.59;100528.98;117080;1187;23596;-57
2022/09/23 03:22:00;;;;;;;4.50;3.00;;;;;;;8.51;54.74;100530.04;117124;1186;23650;-72
2022/09/23 03:24:31;;;;;;;8.00;3.50;;;;;;;8.46;54.80;100530.89;117113;1186;23560;-72
2022/09/23 03:27:00;;;;;;;6.70;3.50;;;;;;;8.45;54.99;100531.94;117116;1186;24162;-73
2022/09/23 03:29:29;;;;;;;5.90;3.20;;;;;;;8.48;55.17;100532.13;117196;1186;24165;-57
2022/09/23 03:31:55;;;;;;;5.40;3.10;;;;;;;8.51;55.18;100533.72;117072;1187;21853;-75
2022/09/23 03:34:25;;;;;;;7.60;3.20;;;;;;;8.54;55.20;100535.11;117167;1186;23580;-57
2022/09/23 03:37:01;;;;;;;5.50;3.40;;;;;;;8.60;55.17;100532.29;117093;1187;22943;-58
2022/09/23 03:39:41;;;;;;;5.20;3.40;;;;;;;8.66;55.22;100533.35;117209;1185;22915;-58
2022/09/23 03:42:15;;;;;;;3.80;2.70;;;;;;;8.73;55.17;100536.30;117095;1186;22524;-58
2022/09/23 03:44:44;;;;;;;7.40;3.20;;;;;;;8.79;55.18;100540.49;117109;1188;23478;-58
2022/09/23 03:47:12;;;;;;;5.10;3.00;;;;;;;8.83;55.08;100541.35;117177;1183;23836;-57
2022/09/23 03:49:41;;;;;;;11.10;3.60;;;;;;;8.86;55.00;100540.47;117222;1186;21856;-75
2022/09/23 03:52:08;;;;;;;4.40;3.10;;;;;;;8.92;55.15;100531.52;116962;1186;21916;-69
2022/09/23 03:54:35;;;;;;;5.40;3.20;;;;;;;9.01;54.99;100532.20;117065;1186;24613;-57
2022/09/23 03:57:02;;;;;;;7.30;3.30;;;;;;;9.09;54.80;100533.57;117190;1184;23493;-57
2022/09/23 03:59:30;;;;;;;6.10;3.10;;;;;;;9.11;54.77;100533.73;117387;1185;24267;-58
2022/09/23 04:01:58;;;;;;;8.30;3.00;;;;;;;9.06;54.62;100537.25;117089;1187;23602;-76
2022/09/23 04:04:26;;;;;;;3.60;2.70;;;;;;;9.02;54.66;100538.16;117090;1187;23579;-76
2022/09/23 04:06:55;;;;;;;4.00;2.60;;;;;;;8.95;54.62;100538.88;117217;1186;23579;-76
2022/09/23 04:09:22;;;;;;;6.40;2.60;;;;;;;8.90;54.83;100540.11;117185;1185;21859;-75
2022/09/23 04:11:50;;;;;;;4.90;2.80;;;;;;;8.91;54.84;100538.52;117108;1187;23576;-76
2022/09/23 04:14:20;;;;;;;5.00;3.30;;;;;;;8.93;55.01;100536.77;117140;1186;23643;-76
2022/09/23 04:16:47;;;;;;;7.00;3.00;;;;;;;8.94;55.14;100535.73;117092;1186;23580;-75
2022/09/23 04:19:14;;;;;;;5.60;2.90;;;;;;;9.02;55.16;100533.42;117262;1185;23602;-57
2022/09/23 04:21:42;;;;;;;6.80;3.00;;;;;;;9.11;55.35;100534.09;117270;1186;24211;-74
2022/09/23 04:24:10;;;;;;;7.10;2.80;;;;;;;9.21;55.35;100536.15;117339;1187;22454;-57
2022/09/23 04:26:37;;;;;;;9.30;2.80;;;;;;;9.31;55.35;100539.25;117326;1185;21857;-76
2022/09/23 04:29:04;;;;;;;7.50;3.10;;;;;;;9.43;55.42;100535.88;117059;1187;24169;-58
2022/09/23 04:31:32;;;;;;;6.00;3.10;;;;;;;9.50;55.69;100535.83;117396;1185;21858;-57
2022/09/23 04:33:59;;;;;;;3.70;2.60;;;;;;;9.54;55.84;100536.34;117390;1185;22320;-57
2022/09/23 04:36:28;;;;;;;5.20;2.70;;;;;;;9.57;55.86;100534.57;117153;1186;21857;-57
2022/09/23 04:38:56;;;;;;;5.30;3.00;;;;;;;9.64;56.05;100536.28;117169;1185;21860;-76
2022/09/23 04:41:22;;;;;;;4.70;2.60;;;;;;;9.67;56.15;100537.50;119190;1186;22228;-58
2022/09/23 04:43:49;;;;;;;12.60;5.50;;;;;;;9.78;56.34;100539.88;119152;1186;22134;-58
2022/09/23 04:46:16;;;;;;;8.30;3.20;;;;;;;9.88;56.30;100541.40;119359;1185;21832;-77
2022/09/23 04:48:43;;;;;;;3.20;2.40;;;;;;;9.97;56.41;100541.33;119324;1186;22153;-58
2022/09/23 04:51:16;;;;;;;4.00;2.70;;;;;;;10.07;56.53;100534.24;119379;1185;21815;-58
2022/09/23 04:53:44;;;;;;;7.90;4.30;;;;;;;10.17;56.67;100538.20;118188;1186;22601;-58
2022/09/23 04:56:13;;;;;;;6.60;5.00;;;;;;;10.26;56.75;100541.98;117287;1186;22041;-59
2022/09/23 04:58:40;;;;;;;4.40;3.30;;;;;;;10.41;56.88;100539.94;117172;1186;24278;-58
2022/09/23 05:01:18;;;;;;;4.70;2.70;;;;;;;10.55;56.93;100544.73;117020;1185;23479;-59
2022/09/23 05:03:46;;;;;;;6.10;2.70;;;;;;;10.70;57.28;100542.83;117296;1185;24172;-77
2022/09/23 05:06:13;;;;;;;4.90;3.10;;;;;;;10.85;57.30;100546.02;117310;1185;24223;-75
2022/09/23 05:08:52;;;;;;;4.00;2.70;;;;;;;10.99;57.18;100538.67;117234;1186;22474;-59
2022/09/23 05:11:19;;;;;;;6.80;3.00;;;;;;;11.15;57.03;100540.40;117252;1186;21910;-77
2022/09/23 05:13:48;;;;;;;4.70;2.70;;;;;;;11.28;57.29;100538.66;117138;1189;24715;-78
2022/09/23 05:16:15;;;;;;;5.20;2.70;;;;;;;11.44;57.06;100540.39;117308;1186;22629;-59
2022/09/23 05:18:43;;;;;;;4.40;2.60;;;;;;;11.59;57.27;100535.29;117129;1187;23653;-76
2022/09/23 05:21:11;;;;;;;6.20;3.10;;;;;;;11.72;57.11;100534.91;117100;1183;21860;-76
2022/09/23 05:23:39;;;;;;;4.30;2.80;;;;;;;11.85;56.99;100532.79;117307;1185;23477;-59
2022/09/23 05:26:09;;;;;;;5.00;2.70;;;;;;;11.98;56.85;100532.42;117149;1186;24206;-77
2022/09/23 05:28:38;;;;;;;5.30;2.90;;;;;;;12.13;57.19;100531.52;117149;1188;22654;-59
2022/09/23 05:31:07;;;;;;;5.70;3.00;;;;;;;12.25;56.84;100531.84;117130;1187;24229;-59
2022/09/23 05:33:35;;;;;;;4.40;2.60;;;;;;;12.41;57.12;100528.23;117159;1188;23557;-59
2022/09/23 05:36:02;;;;;;;10.00;3.10;;;;;;;12.58;57.45;100528.11;117356;1185;23474;-59
2022/09/23 05:38:31;;;;;;;6.30;3.00;;;;;;;12.77;57.22;100528.80;117163;1186;24265;-75
2022/09/23 05:41:03;;;;;;;4.30;2.30;;;;;;;12.95;57.06;100530.41;117269;1185;22051;-74
2022/09/23 05:43:31;;;;;;;5.40;3.00;;;;;;;13.13;57.24;100531.80;117353;1186;24212;-75
2022/09/23 05:46:04;;;;;;;4.20;2.70;;;;;;;13.35;57.47;100528.89;117106;1186;24248;-59
2022/09/23 05:48:35;;;;;;;3.50;2.60;;;;;;;13.60;57.10;100523.09;117076;1184;23448;-76
2022/09/23 05:51:03;;;;;;;5.00;2.90;;;;;;;13.83;57.32;100522.04;117414;1185;22631;-58
2022/09/23 05:53:30;;;;;;;4.10;2.70;;;;;;;14.03;56.89;100523.50;117338;1186;22787;-58
2022/09/23 05:55:58;;;;;;;3.90;2.90;;;;;;;14.26;56.84;100522.77;117169;1186;23592;-76
2022/09/23 05:58:26;;;;;;;4.70;2.50;;;;;;;14.50;57.07;100524.60;117150;1186;22786;-74
2022/09/23 06:00:55;;;;;;;5.20;2.50;;;;;;;14.75;56.50;100524.87;117469;1185;24159;-60
2022/09/23 06:03:24;;;;;;;8.40;2.80;;;;;;;15.01;56.34;100523.80;117138;1185;23490;-77
2022/09/23 06:05:53;;;;;;;5.20;2.30;;;;;;;15.24;56.12;100527.21;117051;1186;22111;-59
2022/09/23 06:08:20;;;;;;;5.40;2.50;;;;;;;15.42;55.66;100531.45;117284;1185;22806;-79
2022/09/23 06:10:49;;;;;;;4.10;2.40;;;;;;;15.54;55.47;100533.05;117253;1186;21880;-58
2022/09/23 06:13:21;;;;;;;5.30;2.00;;;;;;;15.58;55.09;100537.52;117152;1185;23560;-79
2022/09/23 06:15:50;;;;;;;5.30;2.40;;;;;;;15.60;55.09;100538.16;117055;1187;23583;-76
2022/09/23 06:18:17;;;;;;;4.50;2.20;;;;;;;15.64;54.86;100539.83;117277;1186;24151;-75
2022/09/23 06:20:45;;;;;;;5.10;2.60;;;;;;;15.64;54.70;100538.77;117238;1184;23635;-60
2022/09/23 06:23:12;;;;;;;6.00;2.30;;;;;;;15.68;54.87;100544.29;117052;1187;23557;-75
2022/09/23 06:25:40;;;;;;;5.00;2.60;;;;;;;15.76;54.57;100547.73;117105;1185;21858;-76
2022/09/23 06:28:11;;;;;;;5.80;2.90;;;;;;;15.83;54.52;100546.66;117312;1186;23621;-79
2022/09/23 06:30:41;;;;;;;6.70;2.30;;;;;;;15.91;54.40;100541.29;117016;1188;23502;-71
2022/09/23 06:33:09;;;;;;;4.90;2.40;;;;;;;16.03;54.29;100541.64;117303;1185;23958;-61
2022/09/23 06:35:35;;;;;;;6.30;2.00;;;;;;;16.12;53.89;100539.73;117203;1186;23529;-76
2022/09/23 06:38:03;;;;;;;6.30;2.30;;;;;;;16.19;53.91;100540.76;117155;1186;23071;-60
2022/09/23 06:40:31;;;;;;;10.40;2.70;;;;;;;16.30;53.89;100541.64;117034;1187;22498;-79
2022/09/23 06:43:01;;;;;;;4.40;2.40;;;;;;;16.45;54.01;100545.73;117227;1185;23557;-60
2022/09/23 06:45:28;;;;;;;3.20;1.90;;;;;;;16.60;53.63;100542.57;117001;1186;24246;-59
2022/09/23 06:47:56;;;;;;;3.20;1.80;;;;;;;16.70;53.60;100540.45;117028;1187;24172;-59
2022/09/23 06:50:26;;;;;;;5.90;1.70;;;;;;;16.77;53.39;100537.38;117199;1186;22932;-76
2022/09/23 06:52:55;;;;;;;4.40;1.80;;;;;;;16.80;52.99;100534.77;117110;1186;23554;-75
2022/09/23 06:55:23;;;;;;;5.50;1.90;;;;;;;16.76;52.88;100535.98;117325;1185;21854;-59
2022/09/23 06:57:50;;;;;;;7.20;2.20;;;;;;;16.76;52.90;100537.58;117180;1185;23469;-58
2022/09/23 07:00:17;;;;;;;3.40;1.90;;;;;;;16.87;52.87;100537.38;117238;1186;24138;-75
2022/09/23 07:02:45;;;;;;;4.00;1.60;;;;;;;16.95;52.68;100532.83;117083;1186;21981;-74
2022/09/23 07:05:15;;;;;;;8.90;2.30;;;;;;;17.05;52.95;100531.77;117109;1186;23513;-58
2022/09/23 07:07:44;;;;;;;35.10;5.50;;;;;;;17.27;52.84;100533.64;117069;1186;23499;-74
2022/09/23 07:10:12;;;;;;;9.00;2.40;;;;;;;17.47;52.80;100529.50;116943;1187;24767;-76
2022/09/23 07:12:39;;;;;;;5.20;1.80;;;;;;;17.69;52.36;100529.20;117139;1186;24166;-58
2022/09/23 07:15:16;;;;;;;4.90;1.90;;;;;;;17.89;51.87;100527.52;117195;1185;21858;-73
2022/09/23 07:17:43;;;;;;;5.70;1.70;;;;;;;18.05;51.59;100525.50;117356;1186;22728;-59
2022/09/23 07:20:10;;;;;;;4.00;1.80;;;;;;;18.17;50.99;100527.11;117313;1185;24173;-58
2022/09/23 07:22:37;;;;;;;4.40;1.30;;;;;;;18.24;50.39;100525.05;117317;1186;24239;-76
2022/09/23 07:25:06;;;;;;;6.20;1.40;;;;;;;18.39;49.90;100523.90;117330;1185;21904;-75
2022/09/23 07:27:34;;;;;;;4.40;1.60;;;;;;;18.57;50.48;100526.68;117331;1186;22929;-77
2022/09/23 07:30:02;;;;;;;3.00;2.00;;;;;;;18.70;50.11;100524.86;117126;1186;23654;-74
2022/09/23 07:32:29;;;;;;;4.90;2.30;;;;;;;18.79;49.72;100526.09;117024;1186;23570;-75
2022/09/23 07:35:11;;;;;;;3.30;1.80;;;;;;;18.99;49.66;100524.52;117091;1186;24158;-75
2022/09/23 07:37:39;;;;;;;5.20;2.20;;;;;;;19.13;48.77;100523.17;117106;1186;22936;-59
2022/09/23 07:40:07;;;;;;;3.60;2.20;;;;;;;19.25;49.22;100517.11;117114;1186;23557;-77
2022/09/23 07:42:34;;;;;;;7.00;1.90;;;;;;;19.42;48.38;100516.84;117061;1186;23469;-58
2022/09/23 07:45:01;;;;;;;3.80;1.50;;;;;;;19.57;48.18;100514.54;117133;1186;24226;-75
2022/09/23 07:47:30;;;;;;;3.90;1.80;;;;;;;19.62;47.36;100514.13;117756;1186;23123;-75
2022/09/23 07:49:58;;;;;;;6.80;2.20;;;;;;;19.70;48.11;100513.41;117137;1186;21936;-59
2022/09/23 07:52:25;;;;;;;3.30;1.40;;;;;;;19.85;47.47;100503.95;117096;1186;23476;-74
2022/09/23 07:54:54;;;;;;;7.70;2.20;;;;;;;20.02;47.01;100508.35;117091;1186;23438;-76
2022/09/23 07:57:20;;;;;;;7.70;2.00;;;;;;;20.06;46.95;100509.54;117043;1186;24755;-73
2022/09/23 07:59:48;;;;;;;9.60;4.60;;;;;;;20.04;46.61;100507.48;117159;1186;23567;-76
2022/09/23 08:02:16;;;;;;;12.60;4.90;;;;;;;20.00;46.17;100504.33;117257;1186;23564;-75
2022/09/23 08:04:43;;;;;;;9.60;4.20;;;;;;;20.13;46.44;100500.66;117346;1186;23635;-60
2022/09/23 08:07:11;;;;;;;4.90;2.40;;;;;;;20.36;46.35;100505.73;117405;1185;23471;-78
2022/09/23 08:09:41;;;;;;;6.30;3.10;;;;;;;20.48;45.12;100503.34;117050;1186;22165;-76
2022/09/23 08:12:14;;;;;;;5.80;3.20;;;;;;;20.40;44.47;100504.82;117093;1187;24236;-75
2022/09/23 08:14:43;;;;;;;4.60;2.30;;;;;;;20.36;45.82;100498.04;117153;1186;21861;-60
2022/09/23 08:17:11;;;;;;;7.40;2.60;;;;;;;20.51;46.04;100497.13;117105;1186;23575;-76
2022/09/23 08:19:38;;;;;;;4.10;1.80;;;;;;;20.73;45.24;100500.61;117019;1186;22652;-59
2022/09/23 08:22:05;;;;;;;5.50;2.50;;;;;;;20.83;44.86;100504.40;117174;1186;24057;-59
2022/09/23 08:24:33;;;;;;;4.20;2.10;;;;;;;20.85;45.35;100508.23;117141;1186;23603;-74
2022/09/23 08:27:01;;;;;;;7.90;1.90;;;;;;;20.83;44.57;100507.43;116832;1187;21919;-59
2022/09/23 08:29:29;;;;;;;4.20;1.70;;;;;;;20.78;45.08;100508.39;117555;1186;21809;-77
2022/09/23 08:31:56;;;;;;;7.60;2.30;;;;;;;20.74;45.09;100506.09;117197;1188;22949;-59
2022/09/23 08:34:26;;;;;;;3.90;1.70;;;;;;;20.83;45.07;100503.34;117120;1186;23456;-76
2022/09/23 08:36:53;;;;;;;4.70;1.70;;;;;;;20.84;44.57;100503.27;119180;1186;21853;-76
2022/09/23 08:39:21;;;;;;;3.00;1.70;;;;;;;20.87;44.07;100501.88;117179;1186;24170;-59
2022/09/23 08:41:52;;;;;;;3.20;2.10;;;;;;;20.92;44.26;100503.02;117349;1185;24202;-60
2022/09/23 08:44:31;;;;;;;4.60;2.00;;;;;;;21.01;43.89;100500.92;117220;1186;21903;-75
2022/09/23 08:47:13;;;;;;;2.40;1.60;;;;;;;21.02;44.25;100496.07;117090;1186;23478;-72
2022/09/23 08:49:48;;;;;;;4.30;1.80;;;;;;;20.91;43.40;100497.54;117508;1187;21871;-77
2022/09/23 08:52:19;;;;;;;19.40;2.80;;;;;;;20.93;44.12;100495.68;116955;1187;23557;-60
2022/09/23 08:54:49;;;;;;;27.60;4.10;;;;;;;21.10;43.27;100501.52;117062;1186;21864;-60
2022/09/23 08:57:43;;;;;;;6.60;2.10;;;;;;;21.18;43.60;100498.81;117162;1186;21874;-79
2022/09/23 09:00:20;;;;;;;4.00;2.00;;;;;;;21.33;43.53;100494.93;117186;1186;23576;-77
2022/09/23 09:02:47;;;;;;;3.20;1.40;;;;;;;21.53;43.23;100490.05;117047;1186;22835;-59
2022/09/23 09:05:21;;;;;;;4.20;1.50;;;;;;;21.57;42.87;100492.35;116981;1189;22999;-60
2022/09/23 09:07:49;;;;;;;3.40;1.80;;;;;;;21.32;42.65;100497.32;119058;1186;22274;-60
2022/09/23 09:10:18;;;;;;;5.10;1.70;;;;;;;20.97;43.01;100489.02;117939;1185;22889;-59
2022/09/23 09:12:49;;;;;;;4.20;1.60;;;;;;;20.85;43.29;100489.50;117039;1188;23579;-74
2022/09/23 09:15:26;;;;;;;1.80;1.20;;;;;;;20.81;43.44;100487.02;117190;1186;22091;-75
2022/09/23 09:18:06;;;;;;;3.60;1.50;;;;;;;20.83;42.65;100483.17;117199;1187;22746;-75
2022/09/23 09:20:35;;;;;;;2.70;1.60;;;;;;;20.98;42.97;100481.48;117317;1185;21862;-75
2022/09/23 09:23:21;;;;;;;3.10;1.40;;;;;;;21.19;43.12;100484.99;117258;1185;23554;-74
2022/09/23 09:25:51;;;;;;;2.90;1.30;;;;;;;21.43;43.01;100483.33;117202;1186;21913;-60
2022/09/23 09:28:23;;;;;;;4.00;1.30;;;;;;;21.68;42.54;100487.29;117468;1184;22628;-59
2022/09/23 09:30:56;;;;;;;8.20;2.00;;;;;;;21.94;42.66;100482.58;117137;1186;21864;-59
2022/09/23 09:33:31;;;;;;;4.30;1.50;;;;;;;22.21;42.67;100483.48;117213;1186;22928;-59
2022/09/23 09:36:09;;;;;;;3.90;1.00;;;;;;;22.36;41.89;100483.49;117272;1185;21858;-61
2022/09/23 09:38:36;;;;;;;1.80;0.80;;;;;;;22.25;39.72;100483.44;117118;1186;22905;-60
2022/09/23 09:41:11;;;;;;;3.20;1.00;;;;;;;22.07;40.85;100484.55;117223;1185;22810;-75
2022/09/23 09:43:39;;;;;;;1.50;0.90;;;;;;;22.01;40.85;100481.27;117212;1186;21868;-59
2022/09/23 09:46:28;;;;;;;2.80;0.90;;;;;;;22.16;41.37;100481.13;117147;1185;23554;-59
2022/09/23 09:49:04;;;;;;;4.00;1.10;;;;;;;22.39;41.16;100479.43;117183;1185;23659;-59
2022/09/23 09:51:34;;;;;;;2.80;0.80;;;;;;;22.45;40.93;100482.49;117173;1185;23595;-74
2022/09/23 09:54:22;;;;;;;2.40;1.10;;;;;;;22.64;40.61;100480.83;117213;1185;23542;-59
2022/09/23 09:56:50;;;;;;;1.80;1.20;;;;;;;22.90;40.18;100479.20;117183;1185;22665;-60
2022/09/23 09:59:27;;;;;;;1.20;0.90;;;;;;;22.99;39.79;100477.52;117233;1185;23483;-75
2022/09/23 10:02:34;;;;;;;1.10;0.80;;;;;;;22.68;39.09;100476.95;117209;1188;23559;-61
2022/09/23 10:05:04;;;;;;;1.80;0.70;;;;;;;22.29;39.56;100476.60;116886;1189;23649;-76
2022/09/23 10:07:32;;;;;;;2.60;1.00;;;;;;;22.01;39.91;100476.64;117028;1187;21857;-75
2022/09/23 10:10:20;;;;;;;5.90;0.90;;;;;;;21.75;40.05;100480.98;117043;1186;21859;-74
2022/09/23 10:13:13;;;;;;;1.10;0.80;;;;;;;21.46;40.14;100476.02;117031;1188;24226;-74
2022/09/23 10:15:42;;;;;;;18.00;1.80;;;;;;;21.23;40.05;100478.52;117063;1187;22909;-60
2022/09/23 10:18:36;;;;;;;2.80;0.80;;;;;;;21.06;40.21;100482.11;116927;1184;22226;-61
2022/09/23 10:21:07;;;;;;;1.10;0.80;;;;;;;20.99;40.51;100480.20;117046;1186;21856;-73
2022/09/23 10:23:40;;;;;;;1.60;1.10;;;;;;;21.14;40.98;100477.20;117123;1186;22925;-73
2022/09/23 10:26:07;;;;;;;3.80;1.20;;;;;;;21.45;41.00;100473.36;117099;1188;23557;-60
2022/09/23 10:28:37;;;;;;;3.90;1.20;;;;;;;21.73;40.26;100475.60;117347;1185;23554;-60
2022/09/23 10:31:27;;;;;;;4.60;1.90;;;;;;;21.86;39.94;100471.77;117236;1186;23554;-60
2022/09/23 10:33:59;;;;;;;4.90;1.80;;;;;;;21.96;39.75;100475.17;117051;1187;24176;-73
2022/09/23 10:36:27;;;;;;;8.70;4.80;;;;;;;22.01;39.39;100479.17;117201;1186;21864;-60
2022/09/23 10:46:36;;;;;;;9.60;5.50;;;;;;;21.92;39.79;100483.04;117245;1186;21859;-72
2022/09/23 10:48:26;;;;;;;4.90;1.90;;;;;;;21.02;40.78;100486.07;116814;1191;24283;-74
2022/09/23 10:50:53;;;;;;;7.50;3.70;;;;;;;20.79;41.29;100488.55;117157;1186;23502;-73
2022/09/23 10:53:40;;;;;;;5.80;2.70;;;;;;;20.58;41.32;100488.39;117248;1186;23554;-61
2022/09/23 10:56:14;;;;;;;3.10;2.10;;;;;;;20.33;41.39;100488.94;117118;1186;23484;-73
2022/09/23 10:58:44;;;;;;;3.80;1.40;;;;;;;20.11;41.25;100489.70;117284;1186;22936;-73
2022/09/23 11:01:20;;;;;;;2.20;1.00;;;;;;;19.92;41.73;100491.90;117210;1186;23576;-72
2022/09/23 11:04:00;;;;;;;1.50;1.10;;;;;;;19.83;42.12;100493.89;117335;1185;23675;-72
2022/09/23 11:07:06;;;;;;;2.70;1.70;;;;;;;19.79;41.93;100490.20;117219;1187;23544;-72
2022/09/23 11:09:39;;;;;;;3.00;1.30;;;;;;;19.76;41.81;100485.69;117067;1188;21902;-60
2022/09/23 11:12:12;;;;;;;1.70;1.10;;;;;;;19.78;41.79;100482.91;117265;1186;23611;-60
2022/09/23 11:15:18;;;;;;;2.00;1.20;;;;;;;19.88;41.87;100480.65;117221;1188;21858;-61
2022/09/23 11:17:46;;;;;;;5.80;1.70;;;;;;;20.11;41.01;100482.23;117198;1186;22650;-60
2022/09/23 11:20:38;;;;;;;3.30;1.30;;;;;;;20.24;41.41;100477.83;117233;1186;23547;-76
2022/09/23 11:23:19;;;;;;;1.80;1.10;;;;;;;20.43;40.91;100480.07;117168;1185;21867;-59
2022/09/23 11:25:53;;;;;;;1.80;1.10;;;;;;;20.55;41.08;100474.46;117074;1186;21895;-73
2022/09/23 11:28:37;;;;;;;2.00;1.00;;;;;;;20.61;41.13;100472.16;117189;1185;21860;-59
2022/09/23 11:31:29;;;;;;;4.90;1.10;;;;;;;20.66;41.11;100472.48;117452;1185;22791;-75
2022/09/23 11:34:15;;;;;;;1.80;1.10;;;;;;;20.70;40.49;100471.70;117366;1185;23547;-73
2022/09/23 11:36:57;;;;;;;3.60;1.10;;;;;;;20.77;40.85;100469.95;117290;1186;23569;-59
2022/09/23 11:39:28;;;;;;;3.00;1.10;;;;;;;20.91;40.78;100468.84;117087;1188;23621;-75
2022/09/23 11:41:55;;;;;;;2.70;1.40;;;;;;;21.11;40.59;100463.80;117005;1188;23659;-59
2022/09/23 11:44:30;;;;;;;1.40;1.00;;;;;;;21.28;39.57;100465.42;117163;1187;23556;-74
2022/09/23 11:47:01;;;;;;;3.20;1.00;;;;;;;21.29;39.47;100463.37;117136;1186;22904;-60
2022/09/23 11:49:40;;;;;;;1.50;1.00;;;;;;;21.24;39.55;100464.17;117226;1185;24318;-74
2022/09/23 11:52:13;;;;;;;2.20;1.20;;;;;;;21.26;40.07;100467.83;117251;1186;21855;-60